This is the latest recevied weather packets stored in our database for station/object K0APR. If no packets are shown the sender has not sent any weather packets the latest 10 day(s).
| Time | Temp. | Humidity | Pressure | Rain* | Wind** | Luminosity | Snow |
|---|---|---|---|---|---|---|---|
| 1788110016 | 26.67° C | 83% | 1008.4 hPa | 0 mm | - | 620 W/m² | - |
| 1788109710 | 26.67° C | 82% | 1008.4 hPa | 0 mm | - | 617 W/m² | - |
| 1788109410 | 26.67° C | 83% | 1008.4 hPa | 0 mm | - | 519 W/m² | - |
| 1788109108 | 26.11° C | 84% | 1008.8 hPa | 0 mm | - | 662 W/m² | - |
| 1788108805 | 25.56° C | 85% | 1008.8 hPa | 0 mm | - | 663 W/m² | - |
| 1788108501 | 24.44° C | 88% | 1008.8 hPa | 0 mm | - | 364 W/m² | - |
| 1788108196 | 24.44° C | 88% | 1008.8 hPa | 0 mm | - | 293 W/m² | - |
| 1788107894 | 25° C | 86% | 1008.8 hPa | 0 mm | - | 306 W/m² | - |
| 1788107588 | 24.44° C | 89% | 1008.8 hPa | 0 mm | - | 626 W/m² | - |
| 1788107283 | 23.89° C | 90% | 1008.4 hPa | 0 mm | - | 382 W/m² | - |
| 1788106979 | 23.33° C | 91% | 1009.2 hPa | 0 mm | - | 262 W/m² | - |
| 1788106675 | 23.33° C | 91% | 1008.8 hPa | 0 mm | - | 386 W/m² | - |
| 1788106374 | 22.78° C | 93% | 1009.2 hPa | 0 mm | - | 306 W/m² | - |
| 1788106070 | 22.78° C | 95% | 1009.2 hPa | 0 mm | - | 222 W/m² | - |
| 1788105769 | 22.22° C | 95% | 1009.2 hPa | 0 mm | - | 212 W/m² | - |
| 1788105465 | 22.22° C | 97% | 1008.8 hPa | 0 mm | - | 211 W/m² | - |
| 1788105162 | 21.67° C | 97% | 1008.8 hPa | 0 mm | - | 264 W/m² | - |
| 1788104862 | 21.67° C | 98% | 1008.8 hPa | 0 mm | - | 264 W/m² | - |
| 1788104557 | 21.67° C | 98% | 1008.4 hPa | 0 mm | - | 124 W/m² | - |
| 1788104254 | 21.11° C | 98% | 1008.8 hPa | 0 mm | - | 109 W/m² | - |
| 1788103949 | 21.11° C | 98% | 1008.8 hPa | 0 mm | - | 101 W/m² | - |
| 1788103647 | 21.11° C | 99% | 1008.8 hPa | 0 mm | - | 115 W/m² | - |
| 1788103342 | 21.11° C | 99% | 1008.4 hPa | 0 mm | - | 121 W/m² | - |
| 1788103037 | 21.11° C | 99% | 1008.4 hPa | 0 mm | - | 129 W/m² | - |
| 1788102736 | 21.11° C | 99% | 1008.4 hPa | 0 mm | - | 111 W/m² | - |
* Rain latest hour (hover to see other rain measurements)
** Current wind speed in m/s (hover to see current wind gust speed)